Time;durP1;ratioP1;P1;durP2;ratioP2;P2;SDS_P1;SDS_P2;PMS_P1;PMS_P2;Temp;Humidity;BMP_temperature;BMP_pressure;BME280_temperature;BME280_humidity;BME280_pressure;Samples;Min_cycle;Max_cycle;Signal;HPM_P1;HPM_P2
2023/11/11 00:01:49;;;;;;;3.20;1.15;;;;;;;22.66;35.33;100292.28;4197146;28;20055;-59
2023/11/11 00:03:51;;;;;;;;;;;;;;;22.65;34.91;100290.63;4197699;28;20048;-59
2023/11/11 00:05:53;;;;;;;;;;;;;;;22.65;35.06;100294.13;4197911;28;19924;-59
2023/11/11 00:07:55;;;;;;;4.15;1.50;;;;;;;22.65;35.11;100296.81;4197473;28;19928;-59
2023/11/11 00:09:57;;;;;;;;;;;;;;;22.70;34.97;100308.94;4197697;28;20071;-59
2023/11/11 00:11:59;;;;;;;4.68;1.40;;;;;;;22.71;35.04;100299.91;4197179;28;20382;-60
2023/11/11 00:14:00;;;;;;;4.10;1.45;;;;;;;22.74;34.96;100305.00;4196950;28;20080;-59
2023/11/11 00:16:02;;;;;;;4.43;1.40;;;;;;;22.74;34.64;100300.47;4196826;28;20045;-60
2023/11/11 00:18:04;;;;;;;2.88;1.00;;;;;;;22.75;34.57;100304.84;4195709;28;20519;-60
2023/11/11 00:20:12;;;;;;;;;;;;;;;22.73;34.84;100305.97;4197669;28;20055;-57
2023/11/11 00:22:14;;;;;;;4.25;1.25;;;;;;;22.70;34.88;100311.59;4196960;28;20295;-59
2023/11/11 00:24:15;;;;;;;4.35;1.35;;;;;;;22.70;35.22;100314.28;4196931;28;20106;-60
2023/11/11 00:26:17;;;;;;;3.92;1.27;;;;;;;22.71;35.23;100311.50;4197168;28;20044;-59
2023/11/11 00:28:19;;;;;;;;;;;;;;;22.72;34.84;100313.16;4197352;28;20132;-61
2023/11/11 00:30:21;;;;;;;3.63;1.30;;;;;;;22.73;34.75;100305.97;4196592;28;19939;-59
2023/11/11 00:32:24;;;;;;;3.22;1.20;;;;;;;22.74;34.84;100307.66;4196909;28;20283;-59
2023/11/11 00:34:25;;;;;;;3.28;1.17;;;;;;;22.79;34.73;100311.59;4196586;28;20049;-59
2023/11/11 00:36:27;;;;;;;3.55;1.13;;;;;;;22.81;35.15;100314.16;4196402;28;20052;-59
2023/11/11 00:38:30;;;;;;;3.38;1.00;;;;;;;22.81;34.98;100312.31;4196915;28;20052;-59
2023/11/11 00:40:32;;;;;;;3.10;1.30;;;;;;;22.80;34.76;100305.25;4196952;28;20135;-59
2023/11/11 00:42:33;;;;;;;4.13;1.10;;;;;;;22.80;34.57;100309.78;4197026;28;20052;-59
2023/11/11 00:44:37;;;;;;;;;;;;;;;22.77;34.79;100305.53;4196640;28;20044;-59
2023/11/11 00:46:40;;;;;;;3.28;1.08;;;;;;;22.75;35.15;100309.38;4196551;28;19981;-59
2023/11/11 00:48:41;;;;;;;3.40;1.10;;;;;;;22.77;35.14;100310.91;4196785;28;20048;-59
2023/11/11 00:50:43;;;;;;;;;;;;;;;22.79;35.07;100318.78;4197053;28;20484;-59
2023/11/11 00:52:45;;;;;;;3.67;1.30;;;;;;;22.80;34.79;100315.13;4196767;28;19921;-59
2023/11/11 00:54:47;;;;;;;3.80;1.42;;;;;;;22.83;35.11;100319.34;4196571;28;20439;-59
2023/11/11 00:56:49;;;;;;;3.55;0.98;;;;;;;22.85;34.80;100320.06;4196617;28;20055;-60
2023/11/11 00:58:51;;;;;;;4.03;1.30;;;;;;;22.87;34.83;100318.06;4196421;28;20079;-60
2023/11/11 01:00:52;;;;;;;3.20;1.10;;;;;;;22.86;34.72;100319.91;4196778;28;20064;-59
2023/11/11 01:02:54;;;;;;;3.90;1.05;;;;;;;22.86;34.95;100316.41;4196565;28;20051;-59
2023/11/11 01:04:56;;;;;;;3.13;1.15;;;;;;;22.84;34.99;100316.53;4196576;28;20048;-59
2023/11/11 01:06:57;;;;;;;3.45;0.98;;;;;;;22.83;34.79;100311.31;4196686;28;20098;-59
2023/11/11 01:08:59;;;;;;;3.63;1.25;;;;;;;22.83;34.70;100309.47;4196507;28;20119;-59
2023/11/11 01:11:01;;;;;;;2.80;0.90;;;;;;;22.83;35.04;100308.63;4196626;28;20074;-59
2023/11/11 01:13:04;;;;;;;5.18;1.30;;;;;;;22.85;34.88;100315.53;4195175;28;20041;-59
2023/11/11 01:15:08;;;;;;;3.80;1.00;;;;;;;22.87;35.00;100315.38;4195429;28;20140;-59
2023/11/11 01:17:10;;;;;;;3.25;1.10;;;;;;;22.86;35.04;100308.34;4196425;28;20044;-59
2023/11/11 01:19:12;;;;;;;3.15;1.00;;;;;;;22.89;34.54;100310.72;4196615;28;20053;-59
2023/11/11 01:21:14;;;;;;;;;;;;;;;22.90;34.65;100315.09;4197230;28;20531;-59
2023/11/11 01:23:15;;;;;;;2.72;1.00;;;;;;;22.87;34.72;100324.28;4196691;28;19920;-59
2023/11/11 01:25:18;;;;;;;4.05;1.20;;;;;;;22.88;34.87;100326.00;4196328;28;20063;-58
2023/11/11 01:27:20;;;;;;;2.15;0.90;;;;;;;22.88;34.77;100319.75;4196031;28;20076;-58
2023/11/11 01:29:21;;;;;;;;;;;;;;;22.87;34.60;100326.97;4196791;28;20128;-59
2023/11/11 01:31:23;;;;;;;3.00;1.00;;;;;;;22.85;34.91;100337.00;4196493;28;20312;-60
2023/11/11 01:33:25;;;;;;;3.70;1.10;;;;;;;22.86;34.66;100333.31;4195104;28;20048;-59
2023/11/11 01:35:27;;;;;;;;;;;;;;;22.88;34.91;100327.81;4196999;28;20060;-59
2023/11/11 01:37:29;;;;;;;2.75;1.10;;;;;;;22.89;34.67;100332.19;4196479;28;19920;-59
2023/11/11 01:39:31;;;;;;;2.40;0.93;;;;;;;22.93;34.94;100328.22;4196064;28;20045;-59
2023/11/11 01:41:33;;;;;;;2.60;1.02;;;;;;;22.94;34.72;100328.09;4196345;28;20089;-59
2023/11/11 01:43:34;;;;;;;3.15;1.00;;;;;;;22.96;34.85;100330.63;4195861;28;20048;-58
2023/11/11 01:45:36;;;;;;;1.98;0.80;;;;;;;22.95;34.76;100329.78;4196475;28;20052;-59
2023/11/11 01:47:38;;;;;;;3.65;1.10;;;;;;;22.94;34.45;100328.09;4198994;28;20052;-59
2023/11/11 01:49:41;;;;;;;2.90;1.00;;;;;;;22.95;34.73;100329.78;4199265;28;20049;-59
2023/11/11 01:51:43;;;;;;;3.63;1.10;;;;;;;22.94;34.64;100330.78;4199599;28;20055;-59
2023/11/11 01:53:45;;;;;;;3.88;1.10;;;;;;;22.95;34.63;100328.91;4199359;28;20071;-59
2023/11/11 01:55:50;;;;;;;;;;;;;;;22.92;34.83;100326.53;4199925;28;20075;-59
2023/11/11 01:57:52;;;;;;;2.47;0.90;;;;;;;22.90;34.74;100326.66;4199150;28;19920;-59
2023/11/11 01:59:54;;;;;;;;;;;;;;;22.94;34.75;100329.91;4199723;28;20040;-59
2023/11/11 02:01:59;;;;;;;2.00;0.90;;;;;;;22.95;34.75;100337.84;4199202;28;20288;-59
2023/11/11 02:04:01;;;;;;;3.17;1.00;;;;;;;22.98;34.78;100339.38;4199070;28;20045;-59
2023/11/11 02:06:03;;;;;;;;;;;;;;;22.99;34.48;100330.34;4199538;28;20044;-59
2023/11/11 02:08:07;;;;;;;3.03;1.10;;;;;;;23.00;34.76;100339.22;4199117;28;19927;-59
2023/11/11 02:10:09;;;;;;;4.65;1.20;;;;;;;23.00;34.70;100341.91;4199164;28;20079;-59
2023/11/11 02:12:11;;;;;;;1.98;0.80;;;;;;;23.00;34.60;100340.06;4199059;28;20085;-59
2023/11/11 02:14:13;;;;;;;2.95;0.93;;;;;;;22.99;34.55;100338.38;4198795;28;20048;-59
2023/11/11 02:16:16;;;;;;;2.42;0.90;;;;;;;22.98;34.61;100345.56;4199261;28;20047;-59
2023/11/11 02:18:18;;;;;;;3.25;0.93;;;;;;;22.97;34.48;100343.88;4199129;28;20072;-59
2023/11/11 02:20:20;;;;;;;2.42;0.88;;;;;;;23.00;34.79;100347.25;4198966;28;20048;-59
2023/11/11 02:22:22;;;;;;;2.72;0.90;;;;;;;23.00;34.65;100345.41;4198969;28;20419;-59
2023/11/11 02:24:25;;;;;;;2.42;0.80;;;;;;;23.03;34.75;100344.31;4198774;28;20164;-60
2023/11/11 02:26:27;;;;;;;3.47;0.90;;;;;;;23.06;34.43;100341.31;4198795;28;20602;-59
2023/11/11 02:28:29;;;;;;;3.08;0.88;;;;;;;23.06;34.37;100336.81;4198766;28;20079;-59
2023/11/11 02:30:31;;;;;;;;;;;;;;;23.06;34.59;100338.63;4199447;28;20418;-59
2023/11/11 02:32:32;;;;;;;2.90;1.10;;;;;;;23.03;34.52;100339.78;4198850;28;20375;-59
2023/11/11 02:34:34;;;;;;;2.35;0.90;;;;;;;23.02;34.51;100338.09;4198781;28;20046;-59
2023/11/11 02:36:35;;;;;;;2.90;0.93;;;;;;;23.01;34.76;100339.06;4198585;28;20076;-59
2023/11/11 02:38:39;;;;;;;3.55;1.00;;;;;;;23.01;34.76;100352.47;4198480;28;20055;-59
2023/11/11 02:40:41;;;;;;;2.80;0.82;;;;;;;22.97;34.46;100343.03;4198610;28;20127;-59
2023/11/11 02:42:43;;;;;;;;;;;;;;;23.00;34.76;100350.78;4199162;28;20395;-59
2023/11/11 02:44:44;;;;;;;;;;;;;;;22.99;34.71;100351.78;4198774;28;19960;-59
2023/11/11 02:46:46;;;;;;;3.58;0.88;;;;;;;23.01;34.78;100352.47;4198380;28;19921;-59
2023/11/11 02:48:48;;;;;;;2.83;0.82;;;;;;;23.01;34.66;100338.22;4198767;28;20040;-59
2023/11/11 02:50:49;;;;;;;;;;;;;;;23.05;34.29;100345.00;4198798;28;20664;-59
2023/11/11 02:52:51;;;;;;;3.15;1.00;;;;;;;23.05;34.40;100336.94;4198563;28;19990;-59
2023/11/11 02:54:52;;;;;;;2.75;0.80;;;;;;;23.06;34.71;100344.00;4198167;28;20041;-59
2023/11/11 02:56:54;;;;;;;;;;;;;;;23.06;34.50;100339.50;4198976;28;20052;-60
2023/11/11 02:58:56;;;;;;;2.50;0.93;;;;;;;23.04;34.50;100336.09;4197544;28;20353;-60
2023/11/11 03:00:58;;;;;;;2.95;1.10;;;;;;;23.04;34.32;100341.47;4198417;28;20049;-59
2023/11/11 03:02:59;;;;;;;2.15;0.80;;;;;;;23.04;34.30;100340.59;4198468;28;20098;-59
2023/11/11 03:05:01;;;;;;;2.88;0.88;;;;;;;23.05;34.75;100350.34;4198301;28;20049;-59
2023/11/11 03:07:03;;;;;;;2.15;0.85;;;;;;;23.05;34.35;100348.53;4198335;28;20555;-59
2023/11/11 03:09:05;;;;;;;3.00;0.90;;;;;;;23.07;34.52;100354.56;4197994;28;20044;-59
2023/11/11 03:11:09;;;;;;;2.97;0.93;;;;;;;23.10;34.39;100354.31;4198394;28;20411;-59
2023/11/11 03:13:10;;;;;;;2.63;0.73;;;;;;;23.12;34.29;100360.38;4198308;28;20418;-59
2023/11/11 03:15:12;;;;;;;2.83;0.90;;;;;;;23.14;34.44;100360.22;4197499;28;20075;-58
2023/11/11 03:17:14;;;;;;;;;;;;;;;23.12;34.46;100363.06;4197652;28;20045;-59
2023/11/11 03:19:15;;;;;;;3.47;0.88;;;;;;;23.09;34.48;100363.34;4198234;28;19927;-60
2023/11/11 03:21:21;;;;;;;3.65;1.00;;;;;;;23.12;34.41;100364.88;4198079;28;20076;-59
2023/11/11 03:23:22;;;;;;;3.15;1.08;;;;;;;23.10;34.29;100367.72;4197616;28;20049;-59
2023/11/11 03:25:24;;;;;;;2.25;0.93;;;;;;;23.08;34.37;100377.72;4198122;28;20053;-59
2023/11/11 03:27:26;;;;;;;2.65;0.90;;;;;;;23.10;34.78;100381.13;4198230;28;20044;-59
2023/11/11 03:29:28;;;;;;;;;;;;;;;23.11;34.31;100382.81;4198531;28;20048;-59
2023/11/11 03:31:30;;;;;;;2.53;0.90;;;;;;;23.11;34.49;100376.59;4198075;28;19974;-59
2023/11/11 03:33:32;;;;;;;2.72;0.95;;;;;;;23.14;34.64;100371.78;4197919;28;20514;-59
2023/11/11 03:35:33;;;;;;;1.90;0.75;;;;;;;23.16;34.58;100377.03;4198057;28;20044;-59
2023/11/11 03:37:35;;;;;;;2.85;1.00;;;;;;;23.16;34.31;100378.84;4197901;28;20123;-60
2023/11/11 03:39:39;;;;;;;;;;;;;;;23.17;34.29;100389.44;4198168;28;20557;-59
2023/11/11 03:41:40;;;;;;;2.97;1.10;;;;;;;23.18;34.46;100390.31;4197693;28;19929;-59
2023/11/11 03:43:42;;;;;;;3.58;0.93;;;;;;;23.16;34.19;100394.94;4197598;28;20048;-59
2023/11/11 03:45:44;;;;;;;2.65;0.98;;;;;;;23.14;34.28;100387.03;4196821;28;20219;-59
2023/11/11 03:47:46;;;;;;;2.28;0.90;;;;;;;23.14;34.49;100392.41;4196180;28;20040;-59
2023/11/11 03:49:47;;;;;;;2.85;0.80;;;;;;;23.12;34.31;100387.19;4197482;28;20052;-59
2023/11/11 03:51:49;;;;;;;2.17;0.80;;;;;;;23.13;34.65;100388.03;4197658;28;20125;-59
2023/11/11 03:53:51;;;;;;;2.25;0.90;;;;;;;23.14;34.26;100387.03;4197299;28;20056;-58
2023/11/11 03:55:52;;;;;;;2.13;0.70;;;;;;;23.15;34.25;100388.75;4196326;28;20056;-59
2023/11/11 03:57:54;;;;;;;3.17;1.15;;;;;;;23.16;34.23;100385.06;4196517;28;20060;-59
2023/11/11 03:59:55;;;;;;;2.80;0.77;;;;;;;23.18;34.33;100383.09;4197675;28;20064;-59
2023/11/11 04:01:57;;;;;;;2.55;0.70;;;;;;;23.20;34.16;100394.53;4197709;28;20052;-59
2023/11/11 04:03:59;;;;;;;;;;;;;;;23.19;34.22;100405.44;4197700;28;20048;-59
2023/11/11 04:06:01;;;;;;;2.65;0.90;;;;;;;23.18;34.32;100404.56;4197323;28;19966;-59
2023/11/11 04:08:03;;;;;;;1.75;0.70;;;;;;;23.18;34.24;100404.56;4196927;28;20048;-59
2023/11/11 04:10:05;;;;;;;2.33;0.68;;;;;;;23.17;34.16;100402.88;4197288;28;20128;-59
2023/11/11 04:12:07;;;;;;;2.22;0.80;;;;;;;23.16;34.64;100398.50;4197521;28;20498;-59
2023/11/11 04:14:09;;;;;;;2.63;0.98;;;;;;;23.14;34.24;100397.78;4197263;28;20459;-59
2023/11/11 04:16:11;;;;;;;2.35;0.70;;;;;;;23.14;34.43;100387.88;4197418;28;20511;-59
2023/11/11 04:18:14;;;;;;;3.15;0.80;;;;;;;23.18;34.51;100375.06;4197119;28;20102;-59
2023/11/11 04:20:17;;;;;;;3.25;0.70;;;;;;;23.19;34.35;100394.69;4197235;28;20076;-59
2023/11/11 04:22:18;;;;;;;2.95;0.93;;;;;;;23.20;34.02;100399.91;4196859;28;20427;-59
2023/11/11 04:24:20;;;;;;;2.58;0.70;;;;;;;23.19;34.51;100400.91;4197257;28;20052;-59
2023/11/11 04:26:22;;;;;;;;;;;;;;;23.22;34.31;100413.16;4197562;28;20045;-59
2023/11/11 04:28:24;;;;;;;2.35;0.98;;;;;;;23.20;34.50;100413.31;4197058;28;19921;-59
2023/11/11 04:30:26;;;;;;;3.70;0.95;;;;;;;23.22;34.08;100424.75;4196916;28;20051;-59
2023/11/11 04:32:27;;;;;;;;;;;;;;;23.21;34.35;100424.88;4197540;28;20491;-59
2023/11/11 04:34:30;;;;;;;4.45;0.80;;;;;;;23.18;34.24;100426.03;4197000;28;20007;-59
2023/11/11 04:36:32;;;;;;;2.42;0.70;;;;;;;23.16;34.17;100422.63;4196594;28;20067;-60
2023/11/11 04:38:35;;;;;;;1.80;0.60;;;;;;;23.18;34.30;100419.81;4196979;28;20048;-58
2023/11/11 04:40:37;;;;;;;3.63;0.98;;;;;;;23.22;34.14;100424.75;4196702;28;20049;-59
2023/11/11 04:42:38;;;;;;;3.05;0.68;;;;;;;23.23;34.53;100422.91;4196891;28;20072;-59
2023/11/11 04:44:40;;;;;;;2.25;0.70;;;;;;;23.25;34.03;100420.94;4196787;28;20422;-58
2023/11/11 04:46:42;;;;;;;3.28;0.80;;;;;;;23.25;34.20;100415.56;4196621;28;20088;-59
2023/11/11 04:48:44;;;;;;;;;;;;;;;23.25;34.17;100415.56;4197666;28;20048;-59
2023/11/11 04:50:46;;;;;;;1.92;0.65;;;;;;;23.25;34.08;100420.94;4196290;28;19921;-59
2023/11/11 04:52:48;;;;;;;1.70;0.60;;;;;;;23.22;34.31;100405.13;4212056;28;20044;-60
2023/11/11 04:54:49;;;;;;;2.22;0.77;;;;;;;23.24;34.17;100412.03;4196603;28;20040;-60
2023/11/11 04:56:51;;;;;;;;;;;;;;;23.23;34.12;100418.41;4197391;28;20041;-59
2023/11/11 04:58:53;;;;;;;3.67;0.88;;;;;;;23.20;34.25;100415.19;4196556;28;19932;-60
2023/11/11 05:00:54;;;;;;;2.63;0.93;;;;;;;23.20;34.30;100412.50;4196759;28;20057;-60
2023/11/11 05:02:56;;;;;;;;;;;;;;;23.21;34.35;100415.03;4197206;28;20055;-60
2023/11/11 05:04:58;;;;;;;2.50;0.80;;;;;;;23.21;34.31;100422.22;4196485;28;19927;-60
2023/11/11 05:06:59;;;;;;;1.50;0.55;;;;;;;23.23;34.22;100414.88;4195720;28;20066;-59
2023/11/11 05:09:02;;;;;;;;;;;;;;;23.25;34.13;100412.91;4197162;28;20047;-60
2023/11/11 05:11:05;;;;;;;2.53;0.80;;;;;;;23.24;34.15;100419.25;4196722;28;19927;-59
2023/11/11 05:13:08;;;;;;;3.10;0.90;;;;;;;23.24;34.18;100421.94;4196677;28;20052;-60
2023/11/11 05:15:17;;;;;;;3.15;0.80;;;;;;;23.26;34.10;100426.16;4196687;28;20049;-59
2023/11/11 05:17:25;;;;;;;2.20;0.60;;;;;;;23.25;34.17;100424.47;4196488;28;20075;-59
2023/11/11 05:19:28;;;;;;;3.15;0.88;;;;;;;23.25;34.50;100429.81;4196333;28;20531;-59
2023/11/11 05:21:29;;;;;;;2.75;0.80;;;;;;;23.24;34.28;100429.97;4197322;28;20048;-59
2023/11/11 05:23:31;;;;;;;2.65;0.70;;;;;;;23.24;34.06;100421.94;4200030;28;20054;-59
2023/11/11 05:25:32;;;;;;;;;;;;;;;23.23;34.16;100428.28;4200396;28;20461;-59
2023/11/11 05:27:34;;;;;;;2.50;0.90;;;;;;;23.22;34.41;100429.28;4199879;28;19971;-59
2023/11/11 05:29:39;;;;;;;;;;;;;;;23.25;34.11;100429.81;4199254;28;20048;-59
2023/11/11 05:31:41;;;;;;;3.08;0.73;;;;;;;23.25;34.17;100432.50;4199861;28;19924;-59
2023/11/11 05:33:42;;;;;;;2.22;0.70;;;;;;;23.27;34.05;100432.38;4199578;28;20060;-60
2023/11/11 05:35:45;;;;;;;2.08;0.80;;;;;;;23.28;34.10;100436.75;4199570;28;20052;-59
2023/11/11 05:37:47;;;;;;;1.85;0.52;;;;;;;23.28;34.12;100437.59;4199751;28;20095;-60
2023/11/11 05:39:49;;;;;;;2.40;0.60;;;;;;;23.27;34.18;100448.50;4198465;28;20122;-59
2023/11/11 05:41:50;;;;;;;;;;;;;;;23.23;34.01;100455.97;4200097;28;20520;-59
2023/11/11 05:43:52;;;;;;;3.33;0.70;;;;;;;23.20;34.11;100445.53;4199418;28;20391;-59
2023/11/11 05:45:53;;;;;;;;;;;;;;;23.20;34.21;100445.53;4199981;28;20456;-59
2023/11/11 05:47:55;;;;;;;2.40;0.70;;;;;;;23.20;34.46;100450.88;4199798;28;20003;-59
2023/11/11 05:49:57;;;;;;;3.65;0.70;;;;;;;23.19;34.46;100448.34;4199207;28;20507;-60
2023/11/11 05:52:01;;;;;;;2.60;0.70;;;;;;;23.24;34.24;100456.81;4199674;28;20484;-59
2023/11/11 05:54:02;;;;;;;3.30;0.80;;;;;;;23.26;34.27;100447.63;4199639;28;20079;-59
2023/11/11 05:56:04;;;;;;;;;;;;;;;23.26;33.95;100450.31;4199973;28;20569;-59
2023/11/11 05:58:06;;;;;;;2.30;0.73;;;;;;;23.26;33.81;100458.34;4199367;28;20016;-59
2023/11/11 06:00:13;;;;;;;2.78;0.70;;;;;;;23.27;34.07;100453.84;4199505;28;20072;-59
2023/11/11 06:02:15;;;;;;;2.53;0.80;;;;;;;23.26;34.36;100458.34;4199408;28;20427;-59
2023/11/11 06:04:18;;;;;;;3.03;0.93;;;;;;;23.23;34.28;100449.75;4199067;28;20458;-59
2023/11/11 06:06:21;;;;;;;2.05;0.70;;;;;;;23.26;33.94;100460.19;4198031;28;20119;-59
2023/11/11 06:08:23;;;;;;;2.75;0.70;;;;;;;23.15;34.25;100445.06;4199176;28;20063;-59
2023/11/11 06:10:24;;;;;;;2.70;0.70;;;;;;;23.24;34.27;100464.84;4199291;28;20051;-59
2023/11/11 06:12:26;;;;;;;2.97;0.82;;;;;;;23.27;34.11;100468.09;4199177;28;20102;-59
2023/11/11 06:14:28;;;;;;;;;;;;;;;23.28;34.04;100471.63;4199753;28;20586;-59
2023/11/11 06:16:29;;;;;;;2.45;0.90;;;;;;;23.28;34.14;100482.34;4198142;28;19924;-59
2023/11/11 06:18:31;;;;;;;3.75;0.77;;;;;;;23.29;33.82;100482.22;4198878;28;20052;-59
2023/11/11 06:20:33;;;;;;;2.85;0.77;;;;;;;23.32;33.74;100486.47;4197942;28;20543;-59
2023/11/11 06:22:35;;;;;;;2.47;0.77;;;;;;;23.32;33.92;100488.28;4198947;28;20040;-59
2023/11/11 06:24:36;;;;;;;2.13;0.88;;;;;;;23.31;33.93;100484.75;4199155;28;20047;-59
2023/11/11 06:26:38;;;;;;;3.03;0.93;;;;;;;23.28;33.92;100487.72;4199051;28;20056;-59
2023/11/11 06:28:40;;;;;;;2.95;0.77;;;;;;;23.29;33.97;100489.41;4199014;28;20476;-59
2023/11/11 06:30:42;;;;;;;3.00;0.90;;;;;;;23.27;33.95;100483.38;4198960;28;20045;-59
2023/11/11 06:32:44;;;;;;;2.70;0.80;;;;;;;23.28;34.08;100483.22;4198446;28;20044;-59
2023/11/11 06:34:46;;;;;;;;;;;;;;;23.28;34.20;100480.53;4199413;28;20503;-59
2023/11/11 06:36:48;;;;;;;;;;;;;;;23.26;34.24;100477.13;4199233;28;19920;-59
2023/11/11 06:38:49;;;;;;;2.33;0.80;;;;;;;23.29;34.16;100484.06;4198513;28;19920;-59
2023/11/11 06:40:51;;;;;;;;;;;;;;;23.29;34.21;100487.59;4199333;28;20052;-56
2023/11/11 06:42:56;;;;;;;2.75;0.90;;;;;;;23.28;33.75;100485.03;4198734;28;19966;-59
2023/11/11 06:44:57;;;;;;;3.00;1.00;;;;;;;23.30;34.05;100488.44;4198807;28;20048;-59
2023/11/11 06:46:59;;;;;;;;;;;;;;;23.28;33.96;100485.03;4198291;28;20044;-59
2023/11/11 06:49:01;;;;;;;2.80;0.85;;;;;;;23.25;34.18;100488.84;4198684;28;19924;-60
2023/11/11 06:51:02;;;;;;;2.42;0.80;;;;;;;23.25;33.76;100488.84;4198347;28;20127;-59
2023/11/11 06:53:04;;;;;;;2.60;0.82;;;;;;;23.26;34.25;100487.03;4198469;28;20098;-59
2023/11/11 06:55:09;;;;;;;2.25;0.70;;;;;;;23.24;34.05;100492.53;4198511;28;20415;-59
2023/11/11 06:57:11;;;;;;;2.03;0.70;;;;;;;23.27;33.91;100494.09;4198460;28;20507;-59
2023/11/11 06:59:12;;;;;;;3.22;0.90;;;;;;;23.28;34.16;100502.00;4198310;28;20045;-59
2023/11/11 07:01:22;;;;;;;2.15;0.85;;;;;;;23.29;34.05;100501.00;4197927;28;20046;-59
2023/11/11 07:03:24;;;;;;;3.28;0.90;;;;;;;23.32;33.92;100494.50;4198627;28;20135;-60
2023/11/11 07:05:26;;;;;;;;;;;;;;;23.33;34.18;100506.06;4198914;28;20044;-59
2023/11/11 07:07:27;;;;;;;4.03;0.93;;;;;;;23.32;33.88;100499.88;4198184;28;19928;-59
2023/11/11 07:09:30;;;;;;;2.50;0.60;;;;;;;23.33;33.92;100508.75;4198492;28;20051;-59
2023/11/11 07:11:32;;;;;;;3.08;0.98;;;;;;;23.32;33.94;100507.94;4198358;28;20044;-59
2023/11/11 07:13:33;;;;;;;2.85;0.70;;;;;;;23.31;33.67;100508.03;4198187;28;20044;-59
2023/11/11 07:15:41;;;;;;;2.65;0.90;;;;;;;23.29;33.76;100503.69;4197993;28;20059;-59
2023/11/11 07:17:44;;;;;;;2.83;1.00;;;;;;;23.29;33.79;100508.19;4198304;28;20147;-59
2023/11/11 07:19:46;;;;;;;2.75;0.77;;;;;;;23.29;33.70;100517.13;4198234;28;20134;-59
2023/11/11 07:21:48;;;;;;;2.22;0.73;;;;;;;23.31;33.85;100513.41;4198150;28;20054;-59
2023/11/11 07:24:10;;;;;;;2.33;0.80;;;;;;;23.32;33.68;100520.47;4198031;28;20131;-59
2023/11/11 07:26:12;;;;;;;3.80;1.02;;;;;;;23.33;33.78;100522.19;4198015;28;20466;-59
2023/11/11 07:28:15;;;;;;;2.72;0.82;;;;;;;23.34;33.80;100538.13;4197847;28;20453;-59
2023/11/11 07:30:16;;;;;;;2.97;0.85;;;;;;;23.37;33.88;100534.34;4197697;28;20044;-59
2023/11/11 07:32:18;;;;;;;;;;;;;;;23.36;33.65;100532.66;4198326;28;20048;-60
2023/11/11 07:34:20;;;;;;;2.60;0.90;;;;;;;23.33;33.46;100533.78;4197890;28;19927;-59
2023/11/11 07:36:21;;;;;;;;;;;;;;;23.33;33.63;100544.50;4198442;28;20059;-59
2023/11/11 07:38:23;;;;;;;2.17;0.80;;;;;;;23.31;33.48;100545.63;4197753;28;19920;-59
2023/11/11 07:40:25;;;;;;;4.20;0.98;;;;;;;23.31;33.63;100541.13;4197966;28;20052;-59
2023/11/11 07:42:27;;;;;;;3.10;0.95;;;;;;;23.33;33.74;100554.38;4197603;28;20055;-60
2023/11/11 07:44:29;;;;;;;2.90;0.80;;;;;;;23.34;33.56;100550.72;4196873;28;20157;-59
2023/11/11 07:46:32;;;;;;;2.78;0.70;;;;;;;23.34;34.03;100559.59;4197484;28;20411;-59
2023/11/11 07:48:34;;;;;;;3.17;0.85;;;;;;;23.36;33.67;100548.75;4197695;28;20127;-58
2023/11/11 07:50:36;;;;;;;2.53;0.85;;;;;;;23.37;33.82;100539.72;4197363;28;20063;-58
2023/11/11 07:52:38;;;;;;;2.58;0.70;;;;;;;23.37;33.43;100548.59;4197322;28;20457;-59
2023/11/11 07:54:39;;;;;;;4.95;1.10;;;;;;;23.37;33.61;100562.00;4197778;28;20263;-59
2023/11/11 07:56:42;;;;;;;2.78;0.75;;;;;;;23.37;33.65;100556.66;4196437;28;20649;-59
2023/11/11 07:58:47;;;;;;;3.92;1.13;;;;;;;23.36;33.82;100563.00;4197374;28;20526;-59
2023/11/11 08:00:50;;;;;;;3.60;0.90;;;;;;;23.36;33.40;100563.00;4197237;28;20095;-59
2023/11/11 08:02:52;;;;;;;2.60;0.70;;;;;;;23.26;33.99;100548.75;4197337;28;20054;-59
2023/11/11 08:04:54;;;;;;;3.05;0.80;;;;;;;23.33;33.61;100570.47;4197396;28;20041;-59
2023/11/11 08:06:56;;;;;;;3.47;1.00;;;;;;;23.34;33.68;100567.66;4197297;28;20055;-59
2023/11/11 08:08:57;;;;;;;3.92;0.98;;;;;;;23.36;33.90;100572.91;4196969;28;20048;-59
2023/11/11 08:10:59;;;;;;;3.28;0.88;;;;;;;23.37;33.48;100567.38;4197140;28;20044;-60
2023/11/11 08:13:01;;;;;;;3.15;0.93;;;;;;;23.39;33.83;100572.59;4196494;28;20495;-59
2023/11/11 08:15:03;;;;;;;;;;;;;;;23.39;33.55;100573.47;4197385;28;20044;-59
2023/11/11 08:17:05;;;;;;;3.03;0.70;;;;;;;23.37;33.77;100570.06;4197206;28;20006;-59
2023/11/11 08:19:08;;;;;;;2.38;0.77;;;;;;;23.40;33.39;100571.63;4197014;28;20049;-59
2023/11/11 08:21:09;;;;;;;4.28;1.17;;;;;;;23.40;33.66;100571.63;4196964;28;20462;-59
2023/11/11 08:23:16;;;;;;;2.72;0.82;;;;;;;23.38;33.70;100573.56;4196935;28;20053;-59
2023/11/11 08:25:21;;;;;;;2.88;0.85;;;;;;;23.36;34.03;100571.03;4197186;28;20556;-59
2023/11/11 08:27:24;;;;;;;3.70;1.00;;;;;;;23.36;33.97;100580.94;4197139;28;20109;-60
2023/11/11 08:29:26;;;;;;;2.83;0.80;;;;;;;23.37;33.45;100578.13;4196558;28;20078;-59
2023/11/11 08:31:28;;;;;;;2.80;0.90;;;;;;;23.39;33.52;100575.28;4197199;28;20040;-59
2023/11/11 08:33:30;;;;;;;3.28;0.80;;;;;;;23.39;33.83;100578.81;4196830;28;20044;-59
2023/11/11 08:35:32;;;;;;;3.78;0.98;;;;;;;23.38;33.84;100579.81;4197116;28;20044;-58
2023/11/11 08:37:33;;;;;;;3.30;0.90;;;;;;;23.38;33.71;100579.81;4197014;28;20102;-60
2023/11/11 08:39:35;;;;;;;;;;;;;;;23.35;33.79;100582.75;4197601;28;20077;-60
2023/11/11 08:41:37;;;;;;;2.88;0.90;;;;;;;23.31;33.66;100584.06;4196897;28;19928;-59
2023/11/11 08:43:39;;;;;;;4.25;0.95;;;;;;;23.29;34.15;100580.66;4196647;28;20041;-60
2023/11/11 08:45:46;;;;;;;3.25;0.70;;;;;;;23.25;34.06;100573.88;4196585;28;20479;-59
2023/11/11 08:47:53;;;;;;;3.10;0.93;;;;;;;23.24;33.79;100581.06;4196983;28;20072;-58
2023/11/11 08:50:00;;;;;;;3.33;1.00;;;;;;;23.23;34.28;100579.41;4196532;28;20072;-59
2023/11/11 08:52:05;;;;;;;3.30;0.75;;;;;;;23.24;34.19;100572.19;4196874;28;20140;-59
2023/11/11 08:54:06;;;;;;;3.13;0.70;;;;;;;23.25;34.09;100572.03;4196963;28;20503;-59
2023/11/11 08:56:08;;;;;;;2.92;0.90;;;;;;;23.25;34.25;100574.72;4196069;28;20045;-59
2023/11/11 08:58:14;;;;;;;2.53;0.98;;;;;;;23.26;33.81;100581.78;4196478;28;20044;-59
2023/11/11 09:00:16;;;;;;;;;;;;;;;23.27;33.74;100585.34;4197116;28;20048;-59
2023/11/11 09:02:19;;;;;;;2.33;0.80;;;;;;;23.24;34.19;100586.44;4196784;28;19951;-59
2023/11/11 09:04:22;;;;;;;2.97;0.95;;;;;;;23.25;33.76;100590.81;4196729;28;20044;-59
2023/11/11 09:06:24;;;;;;;3.65;0.90;;;;;;;23.21;34.12;100578.69;4196573;28;20053;-59
2023/11/11 09:08:26;;;;;;;;;;;;;;;23.22;33.92;100587.56;4197226;28;20049;-59
2023/11/11 09:10:27;;;;;;;4.30;0.95;;;;;;;23.20;33.97;100576.16;4196641;28;19960;-59
2023/11/11 09:12:30;;;;;;;3.38;0.90;;;;;;;23.23;34.18;100582.09;4196111;28;20041;-59
2023/11/11 09:14:33;;;;;;;2.47;0.80;;;;;;;23.25;34.04;100574.72;4196555;28;20492;-59
2023/11/11 09:16:35;;;;;;;3.55;1.08;;;;;;;23.26;34.24;100579.09;4196473;28;20051;-60
2023/11/11 09:18:37;;;;;;;;;;;;;;;23.27;33.86;100580.81;4197038;28;20054;-59
2023/11/11 09:20:39;;;;;;;3.85;1.00;;;;;;;23.27;33.88;100577.28;4196665;28;19956;-59
2023/11/11 09:22:40;;;;;;;3.10;0.80;;;;;;;23.29;34.15;100577.97;4196526;28;20048;-59
2023/11/11 09:24:42;;;;;;;3.00;1.00;;;;;;;23.28;33.82;100568.22;4196466;28;20056;-59
2023/11/11 09:26:44;;;;;;;3.25;0.85;;;;;;;23.27;33.89;100574.59;4196230;28;20131;-59
2023/11/11 09:28:51;;;;;;;3.70;1.00;;;;;;;23.30;33.99;100576.97;4196613;28;20049;-59
2023/11/11 09:30:53;;;;;;;4.10;0.80;;;;;;;23.28;34.24;100565.53;4196706;28;20044;-59
2023/11/11 09:32:58;;;;;;;2.33;0.82;;;;;;;23.30;34.09;100566.25;4196340;28;20058;-59
2023/11/11 09:35:00;;;;;;;2.33;0.75;;;;;;;23.32;33.73;100564.28;4196573;28;20045;-59
2023/11/11 09:37:01;;;;;;;3.88;0.90;;;;;;;23.33;33.61;100563.28;4196391;28;20044;-59
2023/11/11 09:39:05;;;;;;;1.83;0.60;;;;;;;23.34;34.01;100562.28;4196391;28;20051;-59